createdAt,value
2018-08-07T00:01:12.757Z,20.10
2018-08-07T00:03:41.185Z,20.10
2018-08-07T00:06:10.162Z,20.10
2018-08-07T00:08:38.999Z,20.00
2018-08-07T00:11:07.597Z,20.00
2018-08-07T00:13:35.693Z,19.90
2018-08-07T00:16:04.313Z,19.90
2018-08-07T00:18:32.555Z,19.90
2018-08-07T00:21:01.350Z,19.90
2018-08-07T00:23:29.506Z,19.80
2018-08-07T00:25:57.713Z,19.60
2018-08-07T00:28:26.541Z,19.50
2018-08-07T00:30:54.950Z,19.20
2018-08-07T00:33:23.265Z,19.10
2018-08-07T00:35:52.194Z,18.90
2018-08-07T00:38:20.417Z,18.80
2018-08-07T00:40:48.685Z,18.90
2018-08-07T00:43:17.856Z,18.90
2018-08-07T00:48:14.425Z,19.10
2018-08-07T00:50:42.508Z,19.10
2018-08-07T00:53:12.102Z,18.90
2018-08-07T00:55:40.383Z,18.80
2018-08-07T00:58:08.666Z,18.80
2018-08-07T01:00:37.477Z,18.70
2018-08-07T01:03:05.642Z,18.60
2018-08-07T01:05:35.571Z,18.60
2018-08-07T01:08:04.410Z,18.70
2018-08-07T01:10:33.066Z,18.70
2018-08-07T01:13:01.184Z,18.70
2018-08-07T01:15:29.455Z,18.60
2018-08-07T01:17:57.684Z,18.60
2018-08-07T01:20:25.761Z,18.60
2018-08-07T01:22:55.017Z,18.70
2018-08-07T01:25:24.787Z,18.70
2018-08-07T01:30:25.789Z,18.70
2018-08-07T01:32:56.012Z,18.70
2018-08-07T01:35:24.708Z,18.60
2018-08-07T01:37:53.404Z,18.60
2018-08-07T01:40:21.832Z,18.50
2018-08-07T01:42:50.823Z,18.50
2018-08-07T01:47:47.134Z,18.40
2018-08-07T01:50:15.849Z,18.40
2018-08-07T01:55:28.268Z,18.30
2018-08-07T02:00:25.587Z,18.20
2018-08-07T02:02:54.605Z,18.20
2018-08-07T02:05:23.523Z,18.10
2018-08-07T02:07:51.777Z,18.00
2018-08-07T02:10:20.694Z,18.00
2018-08-07T02:12:48.865Z,17.90
2018-08-07T02:15:17.850Z,17.70
2018-08-07T02:17:47.112Z,17.70
2018-08-07T02:20:17.174Z,17.70
2018-08-07T02:22:45.979Z,17.60
2018-08-07T02:27:53.938Z,17.50
2018-08-07T02:30:22.968Z,17.50
2018-08-07T02:32:52.948Z,17.40
2018-08-07T02:35:21.320Z,17.40
2018-08-07T02:37:49.394Z,17.40
2018-08-07T02:40:17.946Z,17.40
2018-08-07T02:45:17.732Z,17.40
2018-08-07T02:47:47.269Z,17.40
2018-08-07T02:50:17.932Z,17.30
2018-08-07T02:52:46.395Z,17.40
2018-08-07T02:55:14.525Z,17.40
2018-08-07T02:57:44.909Z,17.30
2018-08-07T03:00:18.838Z,17.30
2018-08-07T03:02:47.950Z,17.30
2018-08-07T03:05:16.831Z,17.20
2018-08-07T03:07:45.466Z,17.20
2018-08-07T03:10:14.203Z,17.20
2018-08-07T03:12:43.190Z,17.20
2018-08-07T03:15:15.906Z,17.10
2018-08-07T03:17:45.697Z,17.10
2018-08-07T03:20:14.813Z,17.10
2018-08-07T03:22:42.909Z,17.10
2018-08-07T03:25:12.487Z,17.00
2018-08-07T03:27:41.333Z,17.00
2018-08-07T03:30:13.159Z,16.90
2018-08-07T03:32:42.137Z,16.90
2018-08-07T03:35:10.905Z,16.90
2018-08-07T03:37:40.276Z,16.90
2018-08-07T03:40:13.276Z,16.90
2018-08-07T03:42:42.258Z,16.80
2018-08-07T03:45:12.387Z,16.80
2018-08-07T03:47:40.608Z,16.80
2018-08-07T03:50:10.394Z,16.80
2018-08-07T03:52:38.613Z,16.80
2018-08-07T03:55:10.204Z,16.80
2018-08-07T03:57:39.909Z,16.80
2018-08-07T04:00:12.138Z,16.80
2018-08-07T04:02:40.254Z,16.80
2018-08-07T04:07:37.345Z,16.70
2018-08-07T04:10:10.165Z,16.70
2018-08-07T04:12:39.284Z,16.70
2018-08-07T04:17:36.613Z,16.70
2018-08-07T04:20:07.254Z,16.70
2018-08-07T04:22:37.232Z,16.70
2018-08-07T04:25:06.828Z,16.80
2018-08-07T04:27:35.207Z,16.80
2018-08-07T04:32:31.957Z,16.90
2018-08-07T04:39:57.131Z,17.00
2018-08-07T04:42:26.093Z,17.10
2018-08-07T04:47:24.545Z,17.10
2018-08-07T04:49:53.177Z,17.20
2018-08-07T04:52:22.053Z,17.30
2018-08-07T04:57:18.546Z,17.30
2018-08-07T04:59:48.400Z,17.30
2018-08-07T05:02:16.541Z,17.30
2018-08-07T05:04:44.618Z,17.40
2018-08-07T05:07:13.489Z,17.40
2018-08-07T05:09:42.594Z,17.50
2018-08-07T05:12:11.916Z,17.60
2018-08-07T05:14:40.854Z,17.70
2018-08-07T05:17:11.036Z,17.80
2018-08-07T05:19:39.857Z,18.10
2018-08-07T05:22:08.079Z,18.40
2018-08-07T05:24:37.905Z,18.80
2018-08-07T05:27:06.790Z,19.30
2018-08-07T05:29:35.085Z,19.50
2018-08-07T05:32:03.440Z,19.70
2018-08-07T05:34:32.045Z,20.00
2018-08-07T05:37:00.429Z,20.20
2018-08-07T05:39:28.517Z,20.40
2018-08-07T05:41:56.757Z,20.60
2018-08-07T05:44:24.973Z,20.70
2018-08-07T05:46:54.561Z,21.00
2018-08-07T05:49:22.750Z,21.40
2018-08-07T05:54:19.757Z,21.80
2018-08-07T05:56:49.521Z,22.10
2018-08-07T05:59:18.150Z,22.60
2018-08-07T06:01:46.741Z,22.60
2018-08-07T06:04:15.089Z,22.50
2018-08-07T06:11:39.718Z,22.50
2018-08-07T06:16:36.281Z,23.10
2018-08-07T06:21:33.761Z,23.70
2018-08-07T06:26:31.231Z,23.80
2018-08-07T06:31:28.230Z,24.60
2018-08-07T06:33:56.415Z,24.30
2018-08-07T06:36:24.625Z,24.80
2018-08-07T06:38:53.057Z,25.10
2018-08-07T06:41:21.729Z,25.70
2018-08-07T06:43:52.619Z,26.20
2018-08-07T06:46:20.954Z,26.40
2018-08-07T06:48:49.889Z,26.60
2018-08-07T06:51:19.194Z,26.80
2018-08-07T06:53:48.881Z,26.80
2018-08-07T06:56:17.785Z,27.40
2018-08-07T06:58:47.071Z,27.50
2018-08-07T07:01:15.173Z,27.60
2018-08-07T07:08:41.164Z,29.00
2018-08-07T07:11:09.505Z,29.50
2018-08-07T07:13:37.626Z,29.40
2018-08-07T07:16:05.879Z,29.80
2018-08-07T07:21:03.053Z,30.60
2018-08-07T07:23:31.733Z,29.70
2018-08-07T07:26:00.446Z,30.00
2018-08-07T07:28:30.068Z,30.50
2018-08-07T07:30:58.920Z,30.70
2018-08-07T07:33:27.824Z,31.00
2018-08-07T07:35:56.557Z,31.50
2018-08-07T07:38:24.883Z,30.90
2018-08-07T07:40:53.837Z,31.00
2018-08-07T07:43:23.022Z,31.60
2018-08-07T07:45:51.195Z,32.10
2018-08-07T07:48:19.393Z,31.90
2018-08-07T07:50:48.979Z,32.30
2018-08-07T07:53:17.244Z,32.90
2018-08-07T07:55:45.640Z,33.40
2018-08-07T07:58:14.268Z,33.60
2018-08-07T08:00:42.498Z,33.90
2018-08-07T08:03:11.266Z,34.70
2018-08-07T08:08:09.832Z,33.20
2018-08-07T08:10:38.348Z,34.00
2018-08-07T08:13:06.820Z,33.80
2018-08-07T08:18:04.728Z,34.60
2018-08-07T08:20:33.661Z,34.40
2018-08-07T08:23:02.472Z,33.20
2018-08-07T08:25:32.188Z,32.60
2018-08-07T08:30:28.840Z,33.00
2018-08-07T08:32:57.381Z,32.40
2018-08-07T08:35:25.630Z,33.40
2018-08-07T08:37:54.588Z,34.50
2018-08-07T08:40:24.255Z,35.60
2018-08-07T08:42:52.561Z,36.10
2018-08-07T08:45:22.810Z,36.40
2018-08-07T08:47:52.272Z,36.50
2018-08-07T08:50:21.341Z,34.20
2018-08-07T08:52:49.813Z,34.90
2018-08-07T08:57:46.663Z,34.80
2018-08-07T09:02:53.449Z,35.20
2018-08-07T09:05:21.780Z,34.50
2018-08-07T09:07:50.093Z,35.20
2018-08-07T09:10:20.983Z,35.30
2018-08-07T09:12:49.708Z,35.30
2018-08-07T09:15:18.158Z,36.00
2018-08-07T09:17:47.188Z,36.30
2018-08-07T09:20:18.777Z,36.60
2018-08-07T09:25:16.971Z,38.10
2018-08-07T09:27:46.461Z,36.70
2018-08-07T09:30:19.156Z,36.20
2018-08-07T09:35:17.824Z,37.50
2018-08-07T09:37:46.421Z,38.80
2018-08-07T09:40:15.801Z,37.00
2018-08-07T09:42:45.449Z,36.40
2018-08-07T09:45:16.101Z,37.60
2018-08-07T09:47:45.384Z,38.10
2018-08-07T09:50:14.838Z,37.50
2018-08-07T09:52:43.845Z,38.70
2018-08-07T09:55:12.721Z,39.50
2018-08-07T09:57:41.661Z,39.30
2018-08-07T10:10:12.724Z,38.60
2018-08-07T10:12:41.095Z,38.20
2018-08-07T10:15:09.997Z,39.20
2018-08-07T10:17:39.676Z,39.30
2018-08-07T10:20:09.250Z,38.70
2018-08-07T10:22:41.193Z,39.10
2018-08-07T10:25:12.112Z,39.20
2018-08-07T10:27:42.232Z,39.50
2018-08-07T10:30:19.354Z,39.60
2018-08-07T10:32:49.029Z,39.20
2018-08-07T10:35:21.117Z,39.50
2018-08-07T10:37:49.480Z,38.30
2018-08-07T10:40:23.589Z,39.10
2018-08-07T10:42:51.776Z,38.90
2018-08-07T10:45:22.551Z,39.30
2018-08-07T10:47:51.017Z,39.10
2018-08-07T10:50:29.375Z,40.20
2018-08-07T10:52:58.434Z,39.60
2018-08-07T10:55:27.477Z,39.60
2018-08-07T10:57:59.940Z,40.30
2018-08-07T11:00:30.352Z,39.90
2018-08-07T11:05:28.625Z,39.30
2018-08-07T11:07:57.297Z,38.70
2018-08-07T11:10:26.409Z,38.50
2018-08-07T11:12:55.117Z,39.00
2018-08-07T11:17:54.606Z,39.10
2018-08-07T11:20:24.899Z,39.20
2018-08-07T11:22:54.772Z,39.50
2018-08-07T11:27:53.260Z,40.70
2018-08-07T11:30:24.466Z,41.50
2018-08-07T11:32:53.365Z,40.90
2018-08-07T11:35:23.317Z,40.20
2018-08-07T11:37:53.191Z,40.20
2018-08-07T11:40:22.773Z,40.80
2018-08-07T11:42:52.432Z,40.80
2018-08-07T11:45:22.888Z,40.90
2018-08-07T11:47:51.176Z,39.30
2018-08-07T11:50:20.879Z,38.90
2018-08-07T11:55:18.706Z,36.70
2018-08-07T11:57:49.074Z,37.20
2018-08-07T12:00:21.564Z,37.40
2018-08-07T12:07:47.350Z,37.50
2018-08-07T12:10:17.150Z,38.50
2018-08-07T12:12:46.877Z,39.30
2018-08-07T12:15:19.088Z,38.90
2018-08-07T12:17:48.500Z,36.90
2018-08-07T12:20:16.956Z,36.60
2018-08-07T12:22:45.838Z,36.20
2018-08-07T12:25:15.284Z,35.90
2018-08-07T12:32:44.795Z,39.10
2018-08-07T12:35:13.024Z,40.00
2018-08-07T12:37:42.581Z,40.20
2018-08-07T12:40:15.716Z,39.90
2018-08-07T12:42:45.224Z,40.20
2018-08-07T12:45:15.776Z,40.60
2018-08-07T12:47:45.153Z,39.90
2018-08-07T12:50:14.440Z,38.90
2018-08-07T12:57:40.800Z,39.70
2018-08-07T13:00:26.021Z,39.70
2018-08-07T13:02:55.058Z,39.60
2018-08-07T13:05:23.980Z,38.90
2018-08-07T13:07:52.460Z,38.60
2018-08-07T13:10:22.533Z,38.90
2018-08-07T13:12:51.868Z,38.50
2018-08-07T13:15:21.180Z,38.30
2018-08-07T13:25:17.548Z,38.30
2018-08-07T13:27:45.802Z,37.40
2018-08-07T13:30:16.306Z,37.40
2018-08-07T13:32:44.606Z,37.60
2018-08-07T13:35:13.165Z,37.20
2018-08-07T13:37:42.612Z,37.30
2018-08-07T13:40:13.212Z,37.60
2018-08-07T13:42:41.717Z,37.60
2018-08-07T13:45:13.281Z,37.60
2018-08-07T13:47:43.284Z,36.60
2018-08-07T13:50:14.272Z,36.30
2018-08-07T13:52:44.636Z,36.20
2018-08-07T13:55:14.149Z,36.30
2018-08-07T13:57:42.845Z,36.70
2018-08-07T14:00:14.140Z,36.90
2018-08-07T14:02:43.713Z,36.70
2018-08-07T14:05:12.100Z,36.80
2018-08-07T14:07:40.328Z,36.60
2018-08-07T14:10:10.401Z,36.80
2018-08-07T14:15:08.440Z,36.60
2018-08-07T14:17:38.398Z,36.70
2018-08-07T14:20:09.046Z,36.80
2018-08-07T14:25:09.905Z,36.50
2018-08-07T14:30:15.372Z,36.60
2018-08-07T14:32:43.654Z,36.70
2018-08-07T14:37:41.820Z,36.30
2018-08-07T14:40:12.945Z,36.00
2018-08-07T14:42:43.797Z,35.70
2018-08-07T14:45:13.464Z,35.90
2018-08-07T14:47:42.504Z,35.70
2018-08-07T14:50:12.225Z,36.10
2018-08-07T14:55:10.724Z,36.30
2018-08-07T15:00:12.064Z,36.10
2018-08-07T15:02:40.664Z,36.40
2018-08-07T15:05:09.676Z,35.90
2018-08-07T15:10:11.356Z,35.90
2018-08-07T15:12:40.145Z,36.00
2018-08-07T15:17:40.320Z,35.80
2018-08-07T15:20:10.470Z,35.90
2018-08-07T15:22:39.861Z,35.80
2018-08-07T15:25:10.648Z,36.00
2018-08-07T15:30:09.808Z,35.90
2018-08-07T15:32:38.113Z,35.60
2018-08-07T15:35:06.984Z,35.50
2018-08-07T15:37:36.142Z,35.50
2018-08-07T15:40:04.822Z,35.20
2018-08-07T15:42:34.702Z,35.40
2018-08-07T15:45:03.151Z,35.60
2018-08-07T15:47:32.126Z,35.70
2018-08-07T15:50:01.886Z,35.90
2018-08-07T15:52:30.121Z,36.10
2018-08-07T15:55:00.141Z,36.30
2018-08-07T15:57:28.914Z,36.20
2018-08-07T15:59:57.349Z,35.70
2018-08-07T16:02:26.660Z,35.30
2018-08-07T16:07:23.382Z,35.50
2018-08-07T16:09:52.117Z,35.60
2018-08-07T16:14:48.355Z,35.70
2018-08-07T16:19:46.253Z,35.40
2018-08-07T16:24:44.002Z,35.10
2018-08-07T16:27:12.417Z,35.10
2018-08-07T16:32:08.544Z,35.10
2018-08-07T16:37:05.622Z,34.90
2018-08-07T16:42:02.960Z,34.80
2018-08-07T16:44:31.322Z,34.80
2018-08-07T16:47:00.236Z,34.70
2018-08-07T16:49:28.381Z,34.60
2018-08-07T16:51:56.772Z,34.40
2018-08-07T16:54:24.850Z,34.30
2018-08-07T16:56:52.951Z,34.40
2018-08-07T16:59:21.709Z,34.30
2018-08-07T17:01:49.860Z,34.20
2018-08-07T17:04:18.883Z,34.10
2018-08-07T17:06:47.070Z,34.10
2018-08-07T17:09:15.409Z,34.00
2018-08-07T17:11:43.820Z,33.90
2018-08-07T17:14:13.206Z,33.80
2018-08-07T17:16:43.177Z,33.80
2018-08-07T17:19:11.455Z,33.70
2018-08-07T17:21:39.606Z,33.70
2018-08-07T17:24:07.740Z,33.50
2018-08-07T17:26:36.572Z,33.50
2018-08-07T17:29:05.633Z,33.40
2018-08-07T17:31:34.409Z,33.40
2018-08-07T17:34:02.817Z,33.30
2018-08-07T17:36:32.708Z,33.20
2018-08-07T17:39:01.157Z,33.20
2018-08-07T17:41:29.673Z,33.20
2018-08-07T17:43:57.879Z,33.10
2018-08-07T17:46:27.116Z,33.00
2018-08-07T17:51:23.305Z,32.90
2018-08-07T17:53:51.666Z,32.80
2018-08-07T17:56:19.870Z,32.80
2018-08-07T17:58:48.862Z,32.70
2018-08-07T18:01:18.009Z,32.60
2018-08-07T18:03:47.115Z,32.60
2018-08-07T18:06:15.297Z,32.50
2018-08-07T18:08:43.552Z,32.40
2018-08-07T18:16:08.057Z,32.20
2018-08-07T18:18:37.053Z,32.00
2018-08-07T18:21:05.393Z,31.90
2018-08-07T18:23:34.401Z,31.70
2018-08-07T18:26:02.567Z,31.70
2018-08-07T18:28:30.897Z,31.60
2018-08-07T18:33:27.294Z,31.50
2018-08-07T18:35:56.367Z,31.40
2018-08-07T18:38:25.502Z,31.30
2018-08-07T18:40:53.807Z,31.20
2018-08-07T18:45:49.900Z,30.90
2018-08-07T18:48:18.377Z,30.70
2018-08-07T18:50:46.669Z,30.60
2018-08-07T18:53:16.317Z,30.40
2018-08-07T18:58:12.897Z,30.20
2018-08-07T19:00:42.025Z,30.10
2018-08-07T19:03:10.502Z,29.90
2018-08-07T19:05:38.621Z,29.70
2018-08-07T19:08:06.739Z,29.40
2018-08-07T19:10:35.505Z,29.30
2018-08-07T19:13:03.797Z,29.20
2018-08-07T19:15:31.893Z,29.20
2018-08-07T19:18:01.725Z,29.00
2018-08-07T19:20:29.853Z,28.90
2018-08-07T19:22:58.455Z,28.70
2018-08-07T19:25:27.227Z,28.60
2018-08-07T19:27:55.676Z,28.50
2018-08-07T19:32:53.512Z,28.30
2018-08-07T19:35:21.790Z,28.20
2018-08-07T19:37:51.425Z,28.10
2018-08-07T19:40:20.165Z,28.10
2018-08-07T19:42:49.413Z,28.00
2018-08-07T19:45:17.784Z,27.90
2018-08-07T19:47:46.280Z,27.80
2018-08-07T19:50:16.569Z,27.70
2018-08-07T19:52:44.796Z,27.60
2018-08-07T19:57:42.475Z,27.60
2018-08-07T20:00:14.345Z,27.50
2018-08-07T20:05:10.565Z,27.30
2018-08-07T20:07:38.689Z,27.20
2018-08-07T20:10:08.526Z,27.10
2018-08-07T20:12:36.617Z,27.00
2018-08-07T20:15:07.233Z,26.80
2018-08-07T20:17:36.168Z,26.80
2018-08-07T20:20:06.526Z,26.60
